Weather at Eureka Airport

Public forecast

Using degrees Fahrenheit for public forecast. Weather courtesy of forecast.io.

Closest aviation weather report (METAR) to Eureka Airport

Closest report is Cranbrook/Canadian Rockies International Airport, 47.4 nm (87.7 km) NW.

2024/07/18 23:00 (retrieved 21 minutes ago)

CYXC 182300Z 26008KT 230V310 25SM FEW100TCU FEW140 BKN240 32/09 A3005 RMK TCU2AC1CI3 AC TR SLP147 DENSITY ALT 5600FT

Closest aviation forecast (TAF) to Eureka Airport

Closest forecast is Cranbrook/Canadian Rockies International Airport, 47.4 nm (87.7 km) NW.

2024/07/18 19:42 (retrieved 4 hours ago)

TAF CYXC 181840Z 1819/1907 08006KT P6SM SCT120 TEMPO 1819/1904 P6SM VCTS BKN120CB FM190400 24008KT P6SM SCT100 RMK NXT FCST BY 190100Z